sensor_id;sensor_type;location;lat;lon;timestamp;temperature;humidity
9699;DHT22;10089;47.876;8.346;2022-09-12T00:01:58;10.60;99.90
9699;DHT22;10089;47.876;8.346;2022-09-12T00:04:23;10.60;99.90
9699;DHT22;10089;47.876;8.346;2022-09-12T00:06:49;10.60;99.90
9699;DHT22;10089;47.876;8.346;2022-09-12T00:09:15;10.60;99.90
9699;DHT22;10089;47.876;8.346;2022-09-12T00:11:42;10.50;99.90
9699;DHT22;10089;47.876;8.346;2022-09-12T00:14:08;10.50;99.90
9699;DHT22;10089;47.876;8.346;2022-09-12T00:16:35;10.50;99.90
9699;DHT22;10089;47.876;8.346;2022-09-12T00:19:01;10.50;99.90
9699;DHT22;10089;47.876;8.346;2022-09-12T00:21:27;10.40;99.90
9699;DHT22;10089;47.876;8.346;2022-09-12T00:23:53;10.40;99.90
9699;DHT22;10089;47.876;8.346;2022-09-12T00:26:19;10.30;99.90
9699;DHT22;10089;47.876;8.346;2022-09-12T00:28:45;10.40;99.90
9699;DHT22;10089;47.876;8.346;2022-09-12T00:31:15;10.30;99.90
9699;DHT22;10089;47.876;8.346;2022-09-12T00:33:41;10.30;99.90
9699;DHT22;10089;47.876;8.346;2022-09-12T00:36:08;10.30;99.90
9699;DHT22;10089;47.876;8.346;2022-09-12T00:38:34;10.30;99.90
9699;DHT22;10089;47.876;8.346;2022-09-12T00:41:14;10.30;99.90
9699;DHT22;10089;47.876;8.346;2022-09-12T00:43:41;10.50;99.90
9699;DHT22;10089;47.876;8.346;2022-09-12T00:48:47;10.30;99.90
9699;DHT22;10089;47.876;8.346;2022-09-12T00:51:15;10.30;99.90
9699;DHT22;10089;47.876;8.346;2022-09-12T00:53:42;10.20;99.90
9699;DHT22;10089;47.876;8.346;2022-09-12T00:56:08;10.20;99.90
9699;DHT22;10089;47.876;8.346;2022-09-12T00:58:42;10.20;99.90
9699;DHT22;10089;47.876;8.346;2022-09-12T01:01:10;10.20;99.90
9699;DHT22;10089;47.876;8.346;2022-09-12T01:03:35;10.10;99.90
9699;DHT22;10089;47.876;8.346;2022-09-12T01:06:04;10.20;99.90
9699;DHT22;10089;47.876;8.346;2022-09-12T01:08:32;10.20;99.90
9699;DHT22;10089;47.876;8.346;2022-09-12T01:10:58;10.10;99.90
9699;DHT22;10089;47.876;8.346;2022-09-12T01:13:24;10.00;99.90
9699;DHT22;10089;47.876;8.346;2022-09-12T01:15:50;10.00;99.90
9699;DHT22;10089;47.876;8.346;2022-09-12T01:18:20;10.00;99.90
9699;DHT22;10089;47.876;8.346;2022-09-12T01:20:53;10.00;99.90
9699;DHT22;10089;47.876;8.346;2022-09-12T01:31:28;9.90;99.90
9699;DHT22;10089;47.876;8.346;2022-09-12T01:34:01;9.90;99.90
9699;DHT22;10089;47.876;8.346;2022-09-12T01:36:37;9.80;99.90
9699;DHT22;10089;47.876;8.346;2022-09-12T01:39:05;9.90;99.90
9699;DHT22;10089;47.876;8.346;2022-09-12T01:41:42;9.90;99.90
9699;DHT22;10089;47.876;8.346;2022-09-12T01:44:22;9.80;99.90
9699;DHT22;10089;47.876;8.346;2022-09-12T01:46:53;9.80;99.90
9699;DHT22;10089;47.876;8.346;2022-09-12T01:49:28;9.80;99.90
9699;DHT22;10089;47.876;8.346;2022-09-12T01:54:56;9.80;99.90
9699;DHT22;10089;47.876;8.346;2022-09-12T01:57:27;9.80;99.90
9699;DHT22;10089;47.876;8.346;2022-09-12T01:59:56;9.80;99.90
9699;DHT22;10089;47.876;8.346;2022-09-12T02:02:27;9.70;99.90
9699;DHT22;10089;47.876;8.346;2022-09-12T02:05:07;9.70;99.90
9699;DHT22;10089;47.876;8.346;2022-09-12T02:07:44;9.70;99.90
9699;DHT22;10089;47.876;8.346;2022-09-12T02:10:12;9.60;99.90
9699;DHT22;10089;47.876;8.346;2022-09-12T02:12:41;9.60;99.90
9699;DHT22;10089;47.876;8.346;2022-09-12T02:15:09;9.60;99.90
9699;DHT22;10089;47.876;8.346;2022-09-12T02:17:38;9.60;99.90
9699;DHT22;10089;47.876;8.346;2022-09-12T02:20:09;9.70;99.90
9699;DHT22;10089;47.876;8.346;2022-09-12T02:22:36;9.70;99.90
9699;DHT22;10089;47.876;8.346;2022-09-12T02:25:02;9.80;99.90
9699;DHT22;10089;47.876;8.346;2022-09-12T02:27:37;9.80;99.90
9699;DHT22;10089;47.876;8.346;2022-09-12T02:30:04;9.70;99.90
9699;DHT22;10089;47.876;8.346;2022-09-12T02:32:35;9.60;99.90
9699;DHT22;10089;47.876;8.346;2022-09-12T02:40:02;9.50;99.90
9699;DHT22;10089;47.876;8.346;2022-09-12T02:42:28;9.50;99.90
9699;DHT22;10089;47.876;8.346;2022-09-12T02:44:54;9.50;99.90
9699;DHT22;10089;47.876;8.346;2022-09-12T02:47:28;9.50;99.90
9699;DHT22;10089;47.876;8.346;2022-09-12T02:49:55;9.60;99.90
9699;DHT22;10089;47.876;8.346;2022-09-12T02:52:21;9.50;99.90
9699;DHT22;10089;47.876;8.346;2022-09-12T02:54:47;9.60;99.90
9699;DHT22;10089;47.876;8.346;2022-09-12T02:57:14;9.30;99.90
9699;DHT22;10089;47.876;8.346;2022-09-12T02:59:40;9.30;99.90
9699;DHT22;10089;47.876;8.346;2022-09-12T03:02:10;9.30;99.90
9699;DHT22;10089;47.876;8.346;2022-09-12T03:07:13;9.30;99.90
9699;DHT22;10089;47.876;8.346;2022-09-12T03:22:41;9.20;99.90
9699;DHT22;10089;47.876;8.346;2022-09-12T03:25:15;9.40;99.90
9699;DHT22;10089;47.876;8.346;2022-09-12T03:27:48;9.20;99.90
9699;DHT22;10089;47.876;8.346;2022-09-12T03:30:16;9.20;99.90
9699;DHT22;10089;47.876;8.346;2022-09-12T03:32:46;9.20;99.90
9699;DHT22;10089;47.876;8.346;2022-09-12T03:35:12;9.20;99.90
9699;DHT22;10089;47.876;8.346;2022-09-12T03:37:39;9.30;99.90
9699;DHT22;10089;47.876;8.346;2022-09-12T03:40:05;9.30;99.90
9699;DHT22;10089;47.876;8.346;2022-09-12T03:42:31;9.40;99.90
9699;DHT22;10089;47.876;8.346;2022-09-12T03:44:56;9.20;99.90
9699;DHT22;10089;47.876;8.346;2022-09-12T03:47:22;9.20;99.90
9699;DHT22;10089;47.876;8.346;2022-09-12T03:49:47;9.20;99.90
9699;DHT22;10089;47.876;8.346;2022-09-12T03:52:13;9.30;99.90
9699;DHT22;10089;47.876;8.346;2022-09-12T03:54:39;9.20;99.90
9699;DHT22;10089;47.876;8.346;2022-09-12T03:57:04;9.20;99.90
9699;DHT22;10089;47.876;8.346;2022-09-12T03:59:30;9.20;99.90
9699;DHT22;10089;47.876;8.346;2022-09-12T04:01:56;9.20;99.90
9699;DHT22;10089;47.876;8.346;2022-09-12T04:04:21;9.20;99.90
9699;DHT22;10089;47.876;8.346;2022-09-12T04:06:47;9.40;99.90
9699;DHT22;10089;47.876;8.346;2022-09-12T04:09:13;9.20;99.90
9699;DHT22;10089;47.876;8.346;2022-09-12T04:11:38;9.20;99.90
9699;DHT22;10089;47.876;8.346;2022-09-12T04:14:04;9.20;99.90
9699;DHT22;10089;47.876;8.346;2022-09-12T04:16:29;9.20;99.90
9699;DHT22;10089;47.876;8.346;2022-09-12T04:18:56;9.20;99.90
9699;DHT22;10089;47.876;8.346;2022-09-12T04:21:22;9.10;99.90
9699;DHT22;10089;47.876;8.346;2022-09-12T04:23:47;9.10;99.90
9699;DHT22;10089;47.876;8.346;2022-09-12T04:26:13;9.10;99.90
9699;DHT22;10089;47.876;8.346;2022-09-12T04:28:39;9.10;99.90
9699;DHT22;10089;47.876;8.346;2022-09-12T04:31:06;9.00;99.90
9699;DHT22;10089;47.876;8.346;2022-09-12T04:33:35;9.00;99.90
9699;DHT22;10089;47.876;8.346;2022-09-12T04:36:05;9.00;99.90
9699;DHT22;10089;47.876;8.346;2022-09-12T04:38:31;9.00;99.90
9699;DHT22;10089;47.876;8.346;2022-09-12T04:40:57;9.00;99.90
9699;DHT22;10089;47.876;8.346;2022-09-12T04:43:22;9.00;99.90
9699;DHT22;10089;47.876;8.346;2022-09-12T04:45:48;9.00;99.90
9699;DHT22;10089;47.876;8.346;2022-09-12T04:48:13;9.00;99.90
9699;DHT22;10089;47.876;8.346;2022-09-12T04:50:39;9.00;99.90
9699;DHT22;10089;47.876;8.346;2022-09-12T04:53:05;8.90;99.90
9699;DHT22;10089;47.876;8.346;2022-09-12T04:55:32;9.00;99.90
9699;DHT22;10089;47.876;8.346;2022-09-12T04:57:59;8.90;99.90
9699;DHT22;10089;47.876;8.346;2022-09-12T05:00:25;8.90;99.90
9699;DHT22;10089;47.876;8.346;2022-09-12T05:02:50;8.90;99.90
9699;DHT22;10089;47.876;8.346;2022-09-12T05:05:16;8.90;99.90
9699;DHT22;10089;47.876;8.346;2022-09-12T05:07:41;8.80;99.90
9699;DHT22;10089;47.876;8.346;2022-09-12T05:10:07;8.90;99.90
9699;DHT22;10089;47.876;8.346;2022-09-12T05:12:33;8.80;99.90
9699;DHT22;10089;47.876;8.346;2022-09-12T05:15:00;8.90;99.90
9699;DHT22;10089;47.876;8.346;2022-09-12T05:17:27;8.90;99.90
9699;DHT22;10089;47.876;8.346;2022-09-12T05:19:53;8.90;99.90
9699;DHT22;10089;47.876;8.346;2022-09-12T05:22:20;8.90;99.90
9699;DHT22;10089;47.876;8.346;2022-09-12T05:24:45;8.90;99.90
9699;DHT22;10089;47.876;8.346;2022-09-12T05:27:12;8.90;99.90
9699;DHT22;10089;47.876;8.346;2022-09-12T05:29:38;8.90;99.90
9699;DHT22;10089;47.876;8.346;2022-09-12T05:32:04;9.00;99.90
9699;DHT22;10089;47.876;8.346;2022-09-12T05:34:29;9.00;99.90
9699;DHT22;10089;47.876;8.346;2022-09-12T05:36:55;8.90;99.90
9699;DHT22;10089;47.876;8.346;2022-09-12T05:39:21;9.20;99.90
9699;DHT22;10089;47.876;8.346;2022-09-12T05:41:46;9.10;99.90
9699;DHT22;10089;47.876;8.346;2022-09-12T05:44:13;9.20;99.90
9699;DHT22;10089;47.876;8.346;2022-09-12T05:46:40;9.00;99.90
9699;DHT22;10089;47.876;8.346;2022-09-12T05:49:09;9.10;99.90
9699;DHT22;10089;47.876;8.346;2022-09-12T05:51:37;9.30;99.90
9699;DHT22;10089;47.876;8.346;2022-09-12T05:54:03;9.20;99.90
9699;DHT22;10089;47.876;8.346;2022-09-12T05:56:30;9.30;99.90
9699;DHT22;10089;47.876;8.346;2022-09-12T05:58:57;9.40;99.90
9699;DHT22;10089;47.876;8.346;2022-09-12T06:01:23;9.50;99.90
9699;DHT22;10089;47.876;8.346;2022-09-12T06:03:50;9.60;99.90
9699;DHT22;10089;47.876;8.346;2022-09-12T06:06:16;9.70;99.90
9699;DHT22;10089;47.876;8.346;2022-09-12T06:08:44;9.70;99.90
9699;DHT22;10089;47.876;8.346;2022-09-12T06:11:11;9.80;99.90
9699;DHT22;10089;47.876;8.346;2022-09-12T06:13:38;9.90;99.90
9699;DHT22;10089;47.876;8.346;2022-09-12T06:16:09;10.00;99.90
9699;DHT22;10089;47.876;8.346;2022-09-12T06:18:36;10.40;99.90
9699;DHT22;10089;47.876;8.346;2022-09-12T06:21:10;10.80;99.90
9699;DHT22;10089;47.876;8.346;2022-09-12T06:23:36;11.20;99.90
9699;DHT22;10089;47.876;8.346;2022-09-12T06:26:03;12.20;99.90
9699;DHT22;10089;47.876;8.346;2022-09-12T06:28:30;12.50;99.90
9699;DHT22;10089;47.876;8.346;2022-09-12T06:31:09;12.80;99.90
9699;DHT22;10089;47.876;8.346;2022-09-12T06:33:38;12.90;99.90
9699;DHT22;10089;47.876;8.346;2022-09-12T06:36:19;13.40;99.90
9699;DHT22;10089;47.876;8.346;2022-09-12T06:39:06;14.10;99.90
9699;DHT22;10089;47.876;8.346;2022-09-12T06:41:52;14.80;99.90
9699;DHT22;10089;47.876;8.346;2022-09-12T06:44:24;14.50;99.90
9699;DHT22;10089;47.876;8.346;2022-09-12T06:46:53;14.80;99.90
9699;DHT22;10089;47.876;8.346;2022-09-12T06:49:24;15.30;99.90
9699;DHT22;10089;47.876;8.346;2022-09-12T06:51:56;15.00;99.90
9699;DHT22;10089;47.876;8.346;2022-09-12T06:54:32;17.20;99.90
9699;DHT22;10089;47.876;8.346;2022-09-12T06:56:57;14.90;99.90
9699;DHT22;10089;47.876;8.346;2022-09-12T06:59:23;15.70;99.90
9699;DHT22;10089;47.876;8.346;2022-09-12T07:01:49;15.80;99.90
9699;DHT22;10089;47.876;8.346;2022-09-12T07:04:15;16.30;99.90
9699;DHT22;10089;47.876;8.346;2022-09-12T07:06:41;16.50;99.90
9699;DHT22;10089;47.876;8.346;2022-09-12T07:09:11;16.00;99.90
9699;DHT22;10089;47.876;8.346;2022-09-12T07:11:39;17.10;99.90
9699;DHT22;10089;47.876;8.346;2022-09-12T07:14:09;16.90;99.90
9699;DHT22;10089;47.876;8.346;2022-09-12T07:16:45;17.40;99.90
9699;DHT22;10089;47.876;8.346;2022-09-12T07:19:11;17.60;99.90
9699;DHT22;10089;47.876;8.346;2022-09-12T07:21:37;17.50;99.90
9699;DHT22;10089;47.876;8.346;2022-09-12T07:24:09;17.80;99.90
9699;DHT22;10089;47.876;8.346;2022-09-12T07:26:44;18.00;99.90
9699;DHT22;10089;47.876;8.346;2022-09-12T07:29:14;18.40;99.90
9699;DHT22;10089;47.876;8.346;2022-09-12T07:31:45;18.10;99.90
9699;DHT22;10089;47.876;8.346;2022-09-12T07:34:11;18.20;99.90
9699;DHT22;10089;47.876;8.346;2022-09-12T07:36:41;18.00;99.90
9699;DHT22;10089;47.876;8.346;2022-09-12T07:39:10;17.70;99.90
9699;DHT22;10089;47.876;8.346;2022-09-12T07:41:36;17.40;99.90
9699;DHT22;10089;47.876;8.346;2022-09-12T07:44:05;17.10;99.90
9699;DHT22;10089;47.876;8.346;2022-09-12T07:49:27;17.80;99.90
9699;DHT22;10089;47.876;8.346;2022-09-12T07:51:53;18.30;99.90
9699;DHT22;10089;47.876;8.346;2022-09-12T07:54:19;18.60;99.90
9699;DHT22;10089;47.876;8.346;2022-09-12T07:56:44;18.20;99.90
9699;DHT22;10089;47.876;8.346;2022-09-12T07:59:10;18.30;99.90
9699;DHT22;10089;47.876;8.346;2022-09-12T08:01:36;18.90;99.90
9699;DHT22;10089;47.876;8.346;2022-09-12T08:04:02;19.10;99.90
9699;DHT22;10089;47.876;8.346;2022-09-12T08:06:29;18.80;99.90
9699;DHT22;10089;47.876;8.346;2022-09-12T08:08:57;18.90;99.90
9699;DHT22;10089;47.876;8.346;2022-09-12T08:11:23;19.00;99.90
9699;DHT22;10089;47.876;8.346;2022-09-12T08:13:49;19.00;99.90
9699;DHT22;10089;47.876;8.346;2022-09-12T08:16:17;19.10;99.90
9699;DHT22;10089;47.876;8.346;2022-09-12T08:18:43;19.30;99.90
9699;DHT22;10089;47.876;8.346;2022-09-12T08:21:19;19.40;99.90
9699;DHT22;10089;47.876;8.346;2022-09-12T08:23:45;19.40;99.90
9699;DHT22;10089;47.876;8.346;2022-09-12T08:26:11;19.70;99.90
9699;DHT22;10089;47.876;8.346;2022-09-12T08:28:37;19.80;99.90
9699;DHT22;10089;47.876;8.346;2022-09-12T08:31:06;19.50;99.90
9699;DHT22;10089;47.876;8.346;2022-09-12T08:33:32;19.20;99.90
9699;DHT22;10089;47.876;8.346;2022-09-12T08:36:31;18.70;99.90
9699;DHT22;10089;47.876;8.346;2022-09-12T08:38:52;19.30;99.90
9699;DHT22;10089;47.876;8.346;2022-09-12T08:43:54;19.90;99.90
9699;DHT22;10089;47.876;8.346;2022-09-12T08:48:52;20.10;99.90
9699;DHT22;10089;47.876;8.346;2022-09-12T08:51:18;20.10;99.90
9699;DHT22;10089;47.876;8.346;2022-09-12T08:53:45;20.50;99.90
9699;DHT22;10089;47.876;8.346;2022-09-12T08:56:12;19.90;99.90
9699;DHT22;10089;47.876;8.346;2022-09-12T08:58:38;20.40;99.90
9699;DHT22;10089;47.876;8.346;2022-09-12T09:12:10;20.10;99.90
9699;DHT22;10089;47.876;8.346;2022-09-12T09:14:50;20.50;99.90
9699;DHT22;10089;47.876;8.346;2022-09-12T09:17:18;20.50;99.90
9699;DHT22;10089;47.876;8.346;2022-09-12T09:19:50;20.50;99.90
9699;DHT22;10089;47.876;8.346;2022-09-12T09:24:51;21.40;99.90
9699;DHT22;10089;47.876;8.346;2022-09-12T09:29:46;20.00;99.90
9699;DHT22;10089;47.876;8.346;2022-09-12T09:32:28;19.80;99.90
9699;DHT22;10089;47.876;8.346;2022-09-12T09:34:55;19.80;99.90
9699;DHT22;10089;47.876;8.346;2022-09-12T09:42:22;20.60;99.90
9699;DHT22;10089;47.876;8.346;2022-09-12T09:44:49;20.40;99.90
9699;DHT22;10089;47.876;8.346;2022-09-12T09:47:17;21.00;99.90
9699;DHT22;10089;47.876;8.346;2022-09-12T09:49:43;20.50;99.90
9699;DHT22;10089;47.876;8.346;2022-09-12T09:52:09;21.10;99.90
9699;DHT22;10089;47.876;8.346;2022-09-12T10:46:20;21.20;98.00
9699;DHT22;10089;47.876;8.346;2022-09-12T10:48:46;20.60;99.90
9699;DHT22;10089;47.876;8.346;2022-09-12T10:53:57;21.40;99.90
9699;DHT22;10089;47.876;8.346;2022-09-12T11:01:40;22.10;94.10
9699;DHT22;10089;47.876;8.346;2022-09-12T11:09:25;21.00;96.30
9699;DHT22;10089;47.876;8.346;2022-09-12T11:14:38;21.20;98.80
9699;DHT22;10089;47.876;8.346;2022-09-12T11:22:17;22.00;92.20
9699;DHT22;10089;47.876;8.346;2022-09-12T11:29:47;23.10;88.50
9699;DHT22;10089;47.876;8.346;2022-09-12T11:37:40;22.20;93.50
9699;DHT22;10089;47.876;8.346;2022-09-12T11:42:44;22.00;92.10
9699;DHT22;10089;47.876;8.346;2022-09-12T11:47:47;22.90;90.50
9699;DHT22;10089;47.876;8.346;2022-09-12T11:50:17;23.00;81.80
9699;DHT22;10089;47.876;8.346;2022-09-12T11:52:44;22.40;91.70
9699;DHT22;10089;47.876;8.346;2022-09-12T11:55:16;22.80;94.00
9699;DHT22;10089;47.876;8.346;2022-09-12T11:57:47;23.00;85.00
9699;DHT22;10089;47.876;8.346;2022-09-12T12:00:21;22.80;87.70
9699;DHT22;10089;47.876;8.346;2022-09-12T12:05:18;22.30;84.90
9699;DHT22;10089;47.876;8.346;2022-09-12T12:07:55;22.40;87.70
9699;DHT22;10089;47.876;8.346;2022-09-12T12:10:22;22.20;89.40
9699;DHT22;10089;47.876;8.346;2022-09-12T12:12:49;22.10;84.10
9699;DHT22;10089;47.876;8.346;2022-09-12T12:15:15;22.30;90.00
9699;DHT22;10089;47.876;8.346;2022-09-12T12:17:42;22.50;88.00
9699;DHT22;10089;47.876;8.346;2022-09-12T12:20:15;22.50;87.30
9699;DHT22;10089;47.876;8.346;2022-09-12T12:22:51;21.30;88.30
9699;DHT22;10089;47.876;8.346;2022-09-12T12:38:00;21.80;92.40
9699;DHT22;10089;47.876;8.346;2022-09-12T12:40:27;22.10;92.50
9699;DHT22;10089;47.876;8.346;2022-09-12T12:43:00;22.70;91.90
9699;DHT22;10089;47.876;8.346;2022-09-12T12:47:54;22.50;90.20
9699;DHT22;10089;47.876;8.346;2022-09-12T12:50:24;21.70;91.40
9699;DHT22;10089;47.876;8.346;2022-09-12T12:53:01;21.90;92.00
9699;DHT22;10089;47.876;8.346;2022-09-12T12:55:31;21.70;92.30
9699;DHT22;10089;47.876;8.346;2022-09-12T12:58:00;22.20;91.50
9699;DHT22;10089;47.876;8.346;2022-09-12T13:02:56;22.50;92.60
9699;DHT22;10089;47.876;8.346;2022-09-12T13:05:24;21.70;91.80
9699;DHT22;10089;47.876;8.346;2022-09-12T13:07:56;21.70;91.60
9699;DHT22;10089;47.876;8.346;2022-09-12T13:10:27;21.40;88.30
9699;DHT22;10089;47.876;8.346;2022-09-12T13:12:53;21.40;91.40
9699;DHT22;10089;47.876;8.346;2022-09-12T13:18:02;21.90;91.70
9699;DHT22;10089;47.876;8.346;2022-09-12T13:20:30;22.10;90.80
9699;DHT22;10089;47.876;8.346;2022-09-12T13:22:57;22.10;93.80
9699;DHT22;10089;47.876;8.346;2022-09-12T13:25:27;22.20;92.00
9699;DHT22;10089;47.876;8.346;2022-09-12T13:30:26;22.00;88.80
9699;DHT22;10089;47.876;8.346;2022-09-12T13:32:52;21.90;92.20
9699;DHT22;10089;47.876;8.346;2022-09-12T13:38:09;21.20;92.40
9699;DHT22;10089;47.876;8.346;2022-09-12T13:43:26;21.40;93.20
9699;DHT22;10089;47.876;8.346;2022-09-12T13:45:53;21.40;93.90
9699;DHT22;10089;47.876;8.346;2022-09-12T13:48:19;21.70;93.70
9699;DHT22;10089;47.876;8.346;2022-09-12T13:50:50;21.60;95.90
9699;DHT22;10089;47.876;8.346;2022-09-12T13:53:18;21.80;94.60
9699;DHT22;10089;47.876;8.346;2022-09-12T13:55:46;21.30;93.00
9699;DHT22;10089;47.876;8.346;2022-09-12T14:00:38;21.90;93.00
9699;DHT22;10089;47.876;8.346;2022-09-12T14:03:12;21.80;94.00
9699;DHT22;10089;47.876;8.346;2022-09-12T14:06:06;21.70;94.40
9699;DHT22;10089;47.876;8.346;2022-09-12T14:08:32;21.50;94.20
9699;DHT22;10089;47.876;8.346;2022-09-12T14:10:58;21.70;94.70
9699;DHT22;10089;47.876;8.346;2022-09-12T14:13:24;21.80;94.60
9699;DHT22;10089;47.876;8.346;2022-09-12T14:15:51;21.60;95.40
9699;DHT22;10089;47.876;8.346;2022-09-12T14:18:27;21.50;95.90
9699;DHT22;10089;47.876;8.346;2022-09-12T14:20:54;21.30;97.40
9699;DHT22;10089;47.876;8.346;2022-09-12T14:25:51;21.20;98.40
9699;DHT22;10089;47.876;8.346;2022-09-12T14:28:18;21.00;99.90
9699;DHT22;10089;47.876;8.346;2022-09-12T14:33:46;21.00;99.90
9699;DHT22;10089;47.876;8.346;2022-09-12T14:38:42;21.30;99.90
9699;DHT22;10089;47.876;8.346;2022-09-12T14:41:09;21.30;99.90
9699;DHT22;10089;47.876;8.346;2022-09-12T14:43:41;21.20;98.80
9699;DHT22;10089;47.876;8.346;2022-09-12T14:46:16;21.00;99.40
9699;DHT22;10089;47.876;8.346;2022-09-12T14:49:30;20.80;99.90
9699;DHT22;10089;47.876;8.346;2022-09-12T14:51:31;20.90;99.90
9699;DHT22;10089;47.876;8.346;2022-09-12T14:53:58;21.10;99.90
9699;DHT22;10089;47.876;8.346;2022-09-12T14:56:41;21.00;99.90
9699;DHT22;10089;47.876;8.346;2022-09-12T14:59:40;21.10;99.90
9699;DHT22;10089;47.876;8.346;2022-09-12T15:04:44;20.70;99.90
9699;DHT22;10089;47.876;8.346;2022-09-12T15:07:23;20.60;99.90
9699;DHT22;10089;47.876;8.346;2022-09-12T15:09:52;20.70;99.90
9699;DHT22;10089;47.876;8.346;2022-09-12T15:12:18;20.70;99.90
9699;DHT22;10089;47.876;8.346;2022-09-12T15:14:43;20.60;99.90
9699;DHT22;10089;47.876;8.346;2022-09-12T15:17:09;20.70;99.90
9699;DHT22;10089;47.876;8.346;2022-09-12T15:19:35;20.60;99.90
9699;DHT22;10089;47.876;8.346;2022-09-12T15:22:00;20.70;99.90
9699;DHT22;10089;47.876;8.346;2022-09-12T15:24:26;20.70;99.90
9699;DHT22;10089;47.876;8.346;2022-09-12T15:26:52;20.60;99.90
9699;DHT22;10089;47.876;8.346;2022-09-12T15:29:18;20.60;99.90
9699;DHT22;10089;47.876;8.346;2022-09-12T15:31:44;20.60;99.90
9699;DHT22;10089;47.876;8.346;2022-09-12T15:34:10;20.40;99.90
9699;DHT22;10089;47.876;8.346;2022-09-12T15:36:36;20.40;99.90
9699;DHT22;10089;47.876;8.346;2022-09-12T15:39:01;20.50;99.90
9699;DHT22;10089;47.876;8.346;2022-09-12T15:41:31;20.40;99.90
9699;DHT22;10089;47.876;8.346;2022-09-12T15:43:57;20.50;99.90
9699;DHT22;10089;47.876;8.346;2022-09-12T15:46:23;20.40;99.90
9699;DHT22;10089;47.876;8.346;2022-09-12T15:48:49;20.30;99.90
9699;DHT22;10089;47.876;8.346;2022-09-12T15:51:15;20.20;99.90
9699;DHT22;10089;47.876;8.346;2022-09-12T15:53:42;20.10;99.90
9699;DHT22;10089;47.876;8.346;2022-09-12T15:56:07;20.10;99.90
9699;DHT22;10089;47.876;8.346;2022-09-12T15:58:33;20.00;99.90
9699;DHT22;10089;47.876;8.346;2022-09-12T16:00:59;20.10;99.90
9699;DHT22;10089;47.876;8.346;2022-09-12T16:03:26;20.10;99.90
9699;DHT22;10089;47.876;8.346;2022-09-12T16:05:58;20.10;99.90
9699;DHT22;10089;47.876;8.346;2022-09-12T16:08:25;20.10;99.90
9699;DHT22;10089;47.876;8.346;2022-09-12T16:10:55;20.10;99.90
9699;DHT22;10089;47.876;8.346;2022-09-12T16:13:24;20.10;99.90
9699;DHT22;10089;47.876;8.346;2022-09-12T16:15:50;20.10;99.90
9699;DHT22;10089;47.876;8.346;2022-09-12T16:18:16;19.90;99.90
9699;DHT22;10089;47.876;8.346;2022-09-12T16:20:41;19.80;99.90
9699;DHT22;10089;47.876;8.346;2022-09-12T16:23:10;19.80;99.90
9699;DHT22;10089;47.876;8.346;2022-09-12T16:25:37;19.80;99.90
9699;DHT22;10089;47.876;8.346;2022-09-12T16:28:03;19.70;99.90
9699;DHT22;10089;47.876;8.346;2022-09-12T16:30:30;19.60;99.90
9699;DHT22;10089;47.876;8.346;2022-09-12T16:32:56;19.60;99.90
9699;DHT22;10089;47.876;8.346;2022-09-12T16:35:21;19.50;99.90
9699;DHT22;10089;47.876;8.346;2022-09-12T16:37:47;19.50;99.90
9699;DHT22;10089;47.876;8.346;2022-09-12T16:40:12;19.30;99.90
9699;DHT22;10089;47.876;8.346;2022-09-12T16:42:40;19.40;99.90
9699;DHT22;10089;47.876;8.346;2022-09-12T16:45:05;19.30;99.90
9699;DHT22;10089;47.876;8.346;2022-09-12T16:47:31;19.20;99.90
9699;DHT22;10089;47.876;8.346;2022-09-12T16:49:57;19.30;99.90
9699;DHT22;10089;47.876;8.346;2022-09-12T16:52:23;19.20;99.90
9699;DHT22;10089;47.876;8.346;2022-09-12T16:54:49;19.10;99.90
9699;DHT22;10089;47.876;8.346;2022-09-12T16:57:14;19.20;99.90
9699;DHT22;10089;47.876;8.346;2022-09-12T16:59:40;19.10;99.90
9699;DHT22;10089;47.876;8.346;2022-09-12T17:02:06;19.10;99.90
9699;DHT22;10089;47.876;8.346;2022-09-12T17:04:31;19.00;99.90
9699;DHT22;10089;47.876;8.346;2022-09-12T17:06:57;19.00;99.90
9699;DHT22;10089;47.876;8.346;2022-09-12T17:09:24;19.00;99.90
9699;DHT22;10089;47.876;8.346;2022-09-12T17:11:50;18.90;99.90
9699;DHT22;10089;47.876;8.346;2022-09-12T17:14:17;18.80;99.90
9699;DHT22;10089;47.876;8.346;2022-09-12T17:16:43;18.90;99.90
9699;DHT22;10089;47.876;8.346;2022-09-12T17:19:17;18.80;99.90
9699;DHT22;10089;47.876;8.346;2022-09-12T17:21:43;18.70;99.90
9699;DHT22;10089;47.876;8.346;2022-09-12T17:24:09;18.70;99.90
9699;DHT22;10089;47.876;8.346;2022-09-12T17:26:34;18.60;99.90
9699;DHT22;10089;47.876;8.346;2022-09-12T17:29:00;18.50;99.90
9699;DHT22;10089;47.876;8.346;2022-09-12T17:31:26;18.50;99.90
9699;DHT22;10089;47.876;8.346;2022-09-12T17:33:58;18.40;99.90
9699;DHT22;10089;47.876;8.346;2022-09-12T17:36:24;18.50;99.90
9699;DHT22;10089;47.876;8.346;2022-09-12T17:38:50;18.30;99.90
9699;DHT22;10089;47.876;8.346;2022-09-12T17:41:17;18.20;99.90
9699;DHT22;10089;47.876;8.346;2022-09-12T17:43:43;18.10;99.90
9699;DHT22;10089;47.876;8.346;2022-09-12T17:46:10;18.00;99.90
9699;DHT22;10089;47.876;8.346;2022-09-12T17:48:36;17.90;99.90
9699;DHT22;10089;47.876;8.346;2022-09-12T17:51:09;17.80;99.90
9699;DHT22;10089;47.876;8.346;2022-09-12T17:53:35;17.80;99.90
9699;DHT22;10089;47.876;8.346;2022-09-12T17:56:02;17.70;99.90
9699;DHT22;10089;47.876;8.346;2022-09-12T17:58:32;17.70;99.90
9699;DHT22;10089;47.876;8.346;2022-09-12T18:01:01;17.70;99.90
9699;DHT22;10089;47.876;8.346;2022-09-12T18:03:45;17.50;99.90
9699;DHT22;10089;47.876;8.346;2022-09-12T18:06:11;17.40;99.90
9699;DHT22;10089;47.876;8.346;2022-09-12T18:08:37;17.30;99.90
9699;DHT22;10089;47.876;8.346;2022-09-12T18:11:05;17.60;99.90
9699;DHT22;10089;47.876;8.346;2022-09-12T18:13:32;17.30;99.90
9699;DHT22;10089;47.876;8.346;2022-09-12T18:16:01;17.50;99.90
9699;DHT22;10089;47.876;8.346;2022-09-12T18:18:32;17.40;99.90
9699;DHT22;10089;47.876;8.346;2022-09-12T18:20:58;17.30;99.90
9699;DHT22;10089;47.876;8.346;2022-09-12T18:23:24;17.00;99.90
9699;DHT22;10089;47.876;8.346;2022-09-12T18:25:55;16.90;99.90
9699;DHT22;10089;47.876;8.346;2022-09-12T18:28:20;16.90;99.90
9699;DHT22;10089;47.876;8.346;2022-09-12T18:30:46;17.10;99.90
9699;DHT22;10089;47.876;8.346;2022-09-12T18:33:12;16.90;99.90
9699;DHT22;10089;47.876;8.346;2022-09-12T18:35:37;16.80;99.90
9699;DHT22;10089;47.876;8.346;2022-09-12T18:38:03;16.70;99.90
9699;DHT22;10089;47.876;8.346;2022-09-12T18:40:29;16.60;99.90
9699;DHT22;10089;47.876;8.346;2022-09-12T18:42:54;16.50;99.90
9699;DHT22;10089;47.876;8.346;2022-09-12T18:45:20;16.50;99.90
9699;DHT22;10089;47.876;8.346;2022-09-12T18:47:45;16.60;99.90
9699;DHT22;10089;47.876;8.346;2022-09-12T18:50:11;16.50;99.90
9699;DHT22;10089;47.876;8.346;2022-09-12T18:52:37;16.50;99.90
9699;DHT22;10089;47.876;8.346;2022-09-12T18:55:03;16.50;99.90
9699;DHT22;10089;47.876;8.346;2022-09-12T18:57:28;16.20;99.90
9699;DHT22;10089;47.876;8.346;2022-09-12T19:00:02;16.20;99.90
9699;DHT22;10089;47.876;8.346;2022-09-12T19:02:29;16.20;99.90
9699;DHT22;10089;47.876;8.346;2022-09-12T19:04:55;16.10;99.90
9699;DHT22;10089;47.876;8.346;2022-09-12T19:07:20;15.90;99.90
9699;DHT22;10089;47.876;8.346;2022-09-12T19:09:46;15.90;99.90
9699;DHT22;10089;47.876;8.346;2022-09-12T19:12:12;15.90;99.90